createdAt,value
2023-04-23T00:01:42.617Z,8.82
2023-04-23T00:04:20.540Z,7.75
2023-04-23T00:06:58.299Z,8.88
2023-04-23T00:09:36.141Z,9.60
2023-04-23T00:12:13.321Z,13.65
2023-04-23T00:14:50.067Z,16.30
2023-04-23T00:17:26.506Z,14.27
2023-04-23T00:20:02.821Z,11.82
2023-04-23T00:22:39.289Z,12.63
2023-04-23T00:25:15.656Z,15.68
2023-04-23T00:27:51.944Z,23.27
2023-04-23T00:30:28.777Z,24.70
2023-04-23T00:33:05.072Z,30.80
2023-04-23T00:35:41.445Z,24.45
2023-04-23T00:38:17.838Z,26.77
2023-04-23T00:40:54.286Z,30.02
2023-04-23T00:43:31.445Z,33.03
2023-04-23T00:46:08.471Z,32.53
2023-04-23T00:48:46.848Z,33.17
2023-04-23T00:51:23.917Z,23.95
2023-04-23T00:54:00.119Z,15.20
2023-04-23T00:56:36.874Z,20.48
2023-04-23T00:59:15.294Z,20.00
2023-04-23T01:01:52.544Z,24.48
2023-04-23T01:04:31.407Z,27.20
2023-04-23T01:07:07.738Z,27.45
2023-04-23T01:09:44.209Z,30.02
2023-04-23T01:12:20.459Z,24.63
2023-04-23T01:14:58.156Z,24.27
2023-04-23T01:17:34.697Z,25.70
2023-04-23T01:20:11.221Z,26.75
2023-04-23T01:22:47.632Z,25.90
2023-04-23T01:25:24.095Z,26.73
2023-04-23T01:28:00.853Z,27.48
2023-04-23T01:30:38.218Z,34.72
2023-04-23T01:33:15.558Z,30.85
2023-04-23T01:35:52.405Z,27.02
2023-04-23T01:38:32.167Z,26.10
2023-04-23T01:41:08.550Z,27.90
2023-04-23T01:43:45.773Z,24.95
2023-04-23T01:46:22.534Z,28.08
2023-04-23T01:48:58.822Z,23.83
2023-04-23T01:51:35.612Z,21.25
2023-04-23T01:54:11.958Z,16.45
2023-04-23T01:56:48.478Z,13.32
2023-04-23T01:59:25.454Z,14.30
2023-04-23T02:02:01.728Z,14.85
2023-04-23T02:04:39.988Z,15.65
2023-04-23T02:07:16.660Z,17.05
2023-04-23T02:09:52.788Z,14.48
2023-04-23T02:12:29.143Z,18.80
2023-04-23T02:15:07.302Z,15.77
2023-04-23T02:17:43.452Z,14.52
2023-04-23T02:20:21.129Z,16.23
2023-04-23T02:22:57.499Z,18.27
2023-04-23T02:25:33.856Z,19.90
2023-04-23T02:28:12.732Z,15.98
2023-04-23T02:30:50.475Z,13.73
2023-04-23T02:33:26.806Z,13.73
2023-04-23T02:36:03.392Z,13.45
2023-04-23T02:38:44.234Z,13.38
2023-04-23T02:41:21.111Z,15.10
2023-04-23T02:43:57.467Z,16.88
2023-04-23T02:46:35.636Z,19.73
2023-04-23T02:49:11.945Z,24.92
2023-04-23T02:51:48.351Z,22.48
2023-04-23T02:54:25.684Z,21.85
2023-04-23T02:57:02.465Z,20.65
2023-04-23T02:59:38.575Z,23.35
2023-04-23T03:02:15.215Z,19.92
2023-04-23T03:04:51.635Z,22.20
2023-04-23T03:07:27.691Z,22.75
2023-04-23T03:10:05.237Z,19.67
2023-04-23T03:12:41.477Z,18.00
2023-04-23T03:15:17.962Z,18.73
2023-04-23T03:17:54.097Z,17.83
2023-04-23T03:20:30.521Z,20.20
2023-04-23T03:23:06.864Z,27.77
2023-04-23T03:25:43.151Z,30.77
2023-04-23T03:28:19.359Z,26.73
2023-04-23T03:30:56.033Z,24.88
2023-04-23T03:33:32.467Z,26.58
2023-04-23T03:36:08.875Z,24.80
2023-04-23T03:38:45.195Z,21.27
2023-04-23T03:41:21.566Z,36.00
2023-04-23T03:43:59.811Z,32.15
2023-04-23T03:46:51.707Z,56.65
2023-04-23T03:49:28.076Z,58.60
2023-04-23T03:52:05.271Z,58.17
2023-04-23T03:54:43.342Z,38.45
2023-04-23T03:57:31.433Z,46.22
2023-04-23T04:00:32.440Z,37.50
2023-04-23T04:03:09.113Z,28.48
2023-04-23T04:05:45.469Z,25.40
2023-04-23T04:08:22.242Z,26.23
2023-04-23T04:10:58.615Z,36.97
2023-04-23T04:13:35.203Z,42.78
2023-04-23T04:16:11.239Z,39.97
2023-04-23T04:18:47.527Z,43.65
2023-04-23T04:21:23.846Z,36.90
2023-04-23T04:24:06.580Z,35.15
2023-04-23T04:26:43.772Z,36.20
2023-04-23T04:29:23.604Z,44.17
2023-04-23T04:32:00.839Z,44.58
2023-04-23T04:34:37.643Z,41.72
2023-04-23T04:37:13.860Z,35.03
2023-04-23T04:39:50.620Z,36.25
2023-04-23T04:42:27.075Z,34.80
2023-04-23T04:45:05.497Z,31.70
2023-04-23T04:47:41.832Z,29.33
2023-04-23T04:50:17.962Z,32.78
2023-04-23T04:52:54.342Z,28.50
2023-04-23T04:55:30.689Z,23.48
2023-04-23T04:58:07.040Z,25.02
2023-04-23T05:00:43.929Z,22.55
2023-04-23T05:03:20.530Z,24.63
2023-04-23T05:05:58.241Z,21.25
2023-04-23T05:08:34.674Z,21.13
2023-04-23T05:11:11.047Z,21.77
2023-04-23T05:13:48.128Z,22.48
2023-04-23T05:16:24.981Z,20.48
2023-04-23T05:19:01.234Z,19.77
2023-04-23T05:21:38.108Z,18.92
2023-04-23T05:24:14.600Z,21.15
2023-04-23T05:26:51.069Z,19.35
2023-04-23T05:29:27.556Z,15.48
2023-04-23T05:32:04.007Z,15.20
2023-04-23T05:34:40.630Z,14.50
2023-04-23T05:37:16.857Z,16.20
2023-04-23T05:39:53.091Z,22.02
2023-04-23T05:42:29.521Z,22.83
2023-04-23T05:45:08.562Z,21.45
2023-04-23T05:47:45.479Z,18.50
2023-04-23T05:50:22.039Z,23.02
2023-04-23T05:52:58.449Z,20.80
2023-04-23T05:55:35.335Z,18.77
2023-04-23T05:58:11.876Z,17.70
2023-04-23T06:00:49.437Z,11.48
2023-04-23T06:03:26.504Z,13.32
2023-04-23T06:06:03.590Z,14.70
2023-04-23T06:08:39.652Z,15.63
2023-04-23T06:11:16.044Z,18.60
2023-04-23T06:13:52.548Z,19.55
2023-04-23T06:16:29.413Z,22.67
2023-04-23T06:19:06.003Z,20.17
2023-04-23T06:21:42.344Z,17.80
2023-04-23T06:24:18.539Z,19.65
2023-04-23T06:26:54.893Z,19.85
2023-04-23T06:29:31.870Z,19.65
2023-04-23T06:32:11.833Z,16.17
2023-04-23T06:35:00.140Z,13.75
2023-04-23T06:37:37.148Z,13.23
2023-04-23T06:40:14.764Z,13.95
2023-04-23T06:42:50.821Z,13.40
2023-04-23T06:45:30.772Z,13.02
2023-04-23T06:48:07.135Z,13.50
2023-04-23T06:50:44.365Z,12.50
2023-04-23T06:53:21.692Z,11.80
2023-04-23T06:55:58.096Z,11.02
2023-04-23T06:58:34.547Z,8.75
2023-04-23T07:01:19.508Z,9.18
2023-04-23T07:03:55.787Z,9.05
2023-04-23T07:06:34.014Z,8.20
2023-04-23T07:09:10.648Z,8.27
2023-04-23T07:11:47.144Z,8.10
2023-04-23T07:14:23.207Z,7.25
2023-04-23T07:16:59.914Z,7.28
2023-04-23T07:19:36.144Z,7.05
2023-04-23T07:22:12.410Z,5.68
2023-04-23T07:24:48.777Z,5.78
2023-04-23T07:27:25.493Z,7.03
2023-04-23T07:30:01.612Z,4.35
2023-04-23T07:32:38.042Z,4.57
2023-04-23T07:35:14.788Z,4.30
2023-04-23T07:37:53.291Z,5.03
2023-04-23T07:43:08.590Z,5.45
2023-04-23T07:45:45.111Z,4.97
2023-04-23T07:48:21.500Z,5.38
2023-04-23T07:50:57.941Z,4.25
2023-04-23T07:53:35.015Z,4.57
2023-04-23T07:56:11.411Z,4.25
2023-04-23T07:58:48.246Z,3.70
2023-04-23T08:01:24.988Z,4.20
2023-04-23T08:04:02.686Z,4.18
2023-04-23T08:06:40.101Z,4.43
2023-04-23T08:09:16.592Z,4.28
2023-04-23T08:11:54.033Z,4.80
2023-04-23T08:14:30.448Z,3.80
2023-04-23T08:17:07.773Z,4.45
2023-04-23T08:19:44.367Z,4.88
2023-04-23T08:22:21.985Z,3.33
2023-04-23T08:24:58.662Z,3.33
2023-04-23T08:27:35.094Z,3.42
2023-04-23T08:30:11.647Z,3.60
2023-04-23T08:32:51.096Z,2.78
2023-04-23T08:35:27.437Z,1.88
2023-04-23T08:38:04.010Z,2.10
2023-04-23T08:40:42.416Z,1.98
2023-04-23T08:43:33.341Z,1.50
2023-04-23T08:46:16.166Z,2.15
2023-04-23T08:48:53.329Z,2.10
2023-04-23T08:51:32.151Z,1.58
2023-04-23T08:54:13.624Z,2.35
2023-04-23T08:56:51.709Z,1.85
2023-04-23T08:59:33.812Z,2.50
2023-04-23T09:02:10.548Z,2.30
2023-04-23T09:04:50.248Z,2.33
2023-04-23T09:07:27.426Z,2.03
2023-04-23T09:10:06.235Z,1.80
2023-04-23T09:12:44.380Z,3.00
2023-04-23T09:15:21.675Z,2.10
2023-04-23T09:17:59.156Z,1.80
2023-04-23T09:20:35.876Z,2.60
2023-04-23T09:23:14.949Z,3.17
2023-04-23T09:25:51.970Z,2.80
2023-04-23T09:28:35.986Z,2.17
2023-04-23T09:31:12.448Z,1.73
2023-04-23T09:33:53.878Z,1.80
2023-04-23T09:36:31.838Z,1.77
2023-04-23T09:39:23.305Z,2.03
2023-04-23T09:42:05.682Z,2.67
2023-04-23T09:44:41.817Z,1.90
2023-04-23T09:47:18.376Z,2.67
2023-04-23T09:49:54.767Z,2.30
2023-04-23T09:52:32.003Z,1.80
2023-04-23T09:55:08.730Z,1.98
2023-04-23T09:57:46.242Z,1.80
2023-04-23T10:00:25.288Z,1.98
2023-04-23T10:03:27.459Z,2.10
2023-04-23T10:06:04.009Z,1.77
2023-04-23T10:08:41.506Z,1.83
2023-04-23T10:11:21.083Z,2.47
2023-04-23T10:13:57.785Z,2.40
2023-04-23T10:16:46.362Z,2.58
2023-04-23T10:19:27.386Z,2.05
2023-04-23T10:22:18.542Z,2.60
2023-04-23T10:24:59.947Z,1.42
2023-04-23T10:27:53.972Z,2.92
2023-04-23T10:30:30.750Z,3.35
2023-04-23T10:33:15.824Z,2.42
2023-04-23T10:35:59.722Z,1.92
2023-04-23T10:38:42.936Z,1.95
2023-04-23T10:41:35.627Z,2.20
2023-04-23T10:44:16.195Z,1.98
2023-04-23T10:46:57.820Z,2.50
2023-04-23T10:49:34.602Z,2.83
2023-04-23T10:52:20.848Z,2.50
2023-04-23T10:54:59.303Z,3.22
2023-04-23T10:58:05.540Z,2.53
2023-04-23T11:00:46.512Z,2.30
2023-04-23T11:03:44.070Z,2.28
2023-04-23T11:06:46.925Z,3.17
2023-04-23T11:09:48.278Z,1.85
2023-04-23T11:12:25.203Z,2.35
2023-04-23T11:15:13.794Z,2.08
2023-04-23T11:17:52.815Z,3.20
2023-04-23T11:23:06.969Z,2.53
2023-04-23T11:25:44.755Z,2.03
2023-04-23T11:28:21.512Z,1.85
2023-04-23T11:30:58.677Z,2.08
2023-04-23T11:33:37.122Z,2.47
2023-04-23T11:36:15.103Z,2.55
2023-04-23T11:38:56.226Z,1.73
2023-04-23T11:41:33.046Z,1.80
2023-04-23T11:44:09.342Z,2.20
2023-04-23T11:46:48.590Z,1.83
2023-04-23T11:49:25.541Z,2.10
2023-04-23T11:52:02.660Z,1.80
2023-04-23T11:54:41.630Z,2.22
2023-04-23T11:59:53.978Z,1.77
2023-04-23T12:02:30.241Z,2.05
2023-04-23T12:05:08.597Z,2.00
2023-04-23T12:07:50.237Z,2.15
2023-04-23T12:10:26.994Z,2.30
2023-04-23T12:13:03.395Z,2.50
2023-04-23T12:15:58.315Z,2.33
2023-04-23T12:18:43.473Z,2.50
2023-04-23T12:21:19.790Z,2.05
2023-04-23T12:23:57.979Z,2.20
2023-04-23T12:26:38.638Z,1.85
2023-04-23T12:29:18.974Z,1.65
2023-04-23T12:31:59.625Z,2.47
2023-04-23T12:34:35.871Z,2.28
2023-04-23T12:37:11.928Z,1.25
2023-04-23T12:39:48.398Z,2.25
2023-04-23T12:42:25.328Z,1.73
2023-04-23T12:45:09.518Z,1.98
2023-04-23T12:47:46.287Z,1.85
2023-04-23T12:50:22.928Z,2.05
2023-04-23T12:52:59.322Z,2.30
2023-04-23T12:55:36.343Z,2.42
2023-04-23T12:58:12.769Z,2.88
2023-04-23T13:00:49.393Z,2.15
2023-04-23T13:03:27.219Z,3.92
2023-04-23T13:06:04.331Z,2.78
2023-04-23T13:08:40.597Z,2.38
2023-04-23T13:11:16.859Z,2.75
2023-04-23T13:13:53.214Z,2.50
2023-04-23T13:16:30.154Z,2.53
2023-04-23T13:19:06.460Z,1.92
2023-04-23T13:21:42.798Z,1.90
2023-04-23T13:24:19.198Z,2.80
2023-04-23T13:26:56.422Z,1.83
2023-04-23T13:29:32.944Z,2.42
2023-04-23T13:32:08.998Z,3.50
2023-04-23T13:34:45.598Z,2.50
2023-04-23T13:37:23.412Z,4.85
2023-04-23T13:39:59.439Z,5.55
2023-04-23T13:42:35.728Z,4.65
2023-04-23T13:45:13.523Z,2.28
2023-04-23T13:50:26.940Z,2.53
2023-04-23T13:53:03.381Z,2.55
2023-04-23T13:55:39.853Z,1.83
2023-04-23T13:58:16.375Z,2.55
2023-04-23T14:00:52.862Z,2.15
2023-04-23T14:03:29.456Z,2.50
2023-04-23T14:06:06.173Z,2.15
2023-04-23T14:08:42.217Z,2.20
2023-04-23T14:11:18.720Z,1.85
2023-04-23T14:13:55.794Z,2.47
2023-04-23T14:16:32.030Z,2.03
2023-04-23T14:19:08.256Z,1.95
2023-04-23T14:21:45.286Z,3.08
2023-04-23T14:24:33.319Z,2.15
2023-04-23T14:27:09.514Z,2.50
2023-04-23T14:29:56.020Z,2.55
2023-04-23T14:32:32.122Z,3.58
2023-04-23T14:35:08.797Z,5.18
2023-04-23T14:37:45.226Z,5.63
2023-04-23T14:40:21.502Z,6.45
2023-04-23T14:43:08.118Z,5.82
2023-04-23T14:45:51.334Z,3.85
2023-04-23T14:48:27.721Z,4.28
2023-04-23T14:51:04.205Z,2.80
2023-04-23T14:53:40.418Z,2.00
2023-04-23T14:56:16.961Z,2.53
2023-04-23T14:58:53.283Z,5.35
2023-04-23T15:01:30.303Z,4.70
2023-04-23T15:04:06.914Z,3.63
2023-04-23T15:06:42.991Z,3.80
2023-04-23T15:09:19.274Z,2.80
2023-04-23T15:11:55.616Z,3.70
2023-04-23T15:14:35.917Z,2.40
2023-04-23T15:17:12.266Z,2.10
2023-04-23T15:19:48.666Z,3.55
2023-04-23T15:22:25.614Z,3.28
2023-04-23T15:25:01.846Z,3.25
2023-04-23T15:27:38.473Z,2.20
2023-04-23T15:30:14.761Z,2.22
2023-04-23T15:32:52.232Z,1.42
2023-04-23T15:35:48.160Z,2.45
2023-04-23T15:38:24.487Z,2.17
2023-04-23T15:41:00.864Z,2.60
2023-04-23T15:43:37.157Z,3.75
2023-04-23T15:46:13.571Z,4.00
2023-04-23T15:48:49.690Z,3.92
2023-04-23T15:51:27.010Z,3.15
2023-04-23T15:54:07.581Z,4.30
2023-04-23T15:56:43.944Z,5.50
2023-04-23T15:59:20.674Z,4.95
2023-04-23T16:01:57.199Z,6.10
2023-04-23T16:04:33.978Z,5.55
2023-04-23T16:07:10.377Z,4.82
2023-04-23T16:09:47.025Z,6.43
2023-04-23T16:12:23.154Z,8.25
2023-04-23T16:14:59.656Z,10.05
2023-04-23T16:17:36.200Z,4.63
2023-04-23T16:20:12.442Z,4.28
2023-04-23T16:22:49.063Z,3.00
2023-04-23T16:25:25.382Z,4.18
2023-04-23T16:28:01.641Z,3.65
2023-04-23T16:30:38.521Z,4.75
2023-04-23T16:33:14.905Z,5.05
2023-04-23T16:35:52.005Z,6.07
2023-04-23T16:38:28.334Z,5.65
2023-04-23T16:41:04.898Z,5.38
2023-04-23T16:43:41.146Z,4.50
2023-04-23T16:46:17.820Z,4.78
2023-04-23T16:48:53.920Z,4.40
2023-04-23T16:51:30.329Z,5.60
2023-04-23T16:54:06.870Z,4.93
2023-04-23T16:56:44.774Z,5.85
2023-04-23T16:59:21.252Z,4.82
2023-04-23T17:01:57.698Z,4.60
2023-04-23T17:04:34.397Z,5.00
2023-04-23T17:07:10.757Z,3.88
2023-04-23T17:09:47.186Z,6.18
2023-04-23T17:12:23.547Z,6.45
2023-04-23T17:15:00.075Z,7.22
2023-04-23T17:17:37.624Z,6.22
2023-04-23T17:20:13.664Z,6.53
2023-04-23T17:22:49.838Z,6.25
2023-04-23T17:25:26.248Z,5.15
2023-04-23T17:28:02.570Z,4.28
2023-04-23T17:30:38.974Z,3.50
2023-04-23T17:33:18.144Z,3.70
2023-04-23T17:35:57.187Z,5.00
2023-04-23T17:38:33.830Z,8.60
2023-04-23T17:41:10.123Z,11.35
2023-04-23T17:43:46.469Z,11.95
2023-04-23T17:46:22.571Z,12.90
2023-04-23T17:48:59.464Z,8.10
2023-04-23T17:51:35.964Z,5.85
2023-04-23T17:54:12.356Z,10.70
2023-04-23T17:56:48.744Z,4.90
2023-04-23T17:59:25.229Z,3.80
2023-04-23T18:02:03.656Z,4.65
2023-04-23T18:04:40.936Z,4.18
2023-04-23T18:07:17.356Z,4.30
2023-04-23T18:09:53.686Z,5.13
2023-04-23T18:12:31.358Z,3.92
2023-04-23T18:15:10.450Z,3.72
2023-04-23T18:17:46.879Z,3.85
2023-04-23T18:20:25.103Z,4.38
2023-04-23T18:23:01.572Z,3.00
2023-04-23T18:25:38.094Z,7.03
2023-04-23T18:28:14.404Z,4.75
2023-04-23T18:30:50.773Z,5.45
2023-04-23T18:33:51.694Z,4.55
2023-04-23T18:36:37.627Z,5.82
2023-04-23T18:39:13.753Z,4.32
2023-04-23T18:41:50.666Z,5.25
2023-04-23T18:44:27.233Z,6.57
2023-04-23T18:47:03.641Z,5.18
2023-04-23T18:49:53.149Z,4.90
2023-04-23T18:55:05.502Z,3.72
2023-04-23T18:57:41.730Z,3.03
2023-04-23T19:00:18.084Z,5.03
2023-04-23T19:02:54.602Z,5.10
2023-04-23T19:05:33.211Z,4.05
2023-04-23T19:08:09.930Z,4.32
2023-04-23T19:10:46.433Z,7.05
2023-04-23T19:13:23.001Z,4.00
2023-04-23T19:15:59.734Z,3.45
2023-04-23T19:18:36.982Z,3.47
2023-04-23T19:21:13.600Z,3.92
2023-04-23T19:23:53.520Z,3.38
2023-04-23T19:26:29.721Z,4.03
2023-04-23T19:29:06.030Z,3.15
2023-04-23T19:31:42.373Z,3.30
2023-04-23T19:34:18.809Z,2.72
2023-04-23T19:36:55.186Z,2.70
2023-04-23T19:39:31.536Z,2.97
2023-04-23T19:42:07.897Z,4.32
2023-04-23T19:44:47.195Z,4.95
2023-04-23T19:47:23.378Z,4.88
2023-04-23T19:49:59.760Z,3.80
2023-04-23T19:52:36.292Z,4.70
2023-04-23T19:55:12.598Z,3.95
2023-04-23T19:57:48.959Z,4.75
2023-04-23T20:00:29.375Z,4.75
2023-04-23T20:03:06.991Z,5.72
2023-04-23T20:05:45.352Z,8.60
2023-04-23T20:08:25.495Z,7.13
2023-04-23T20:11:01.784Z,6.80
2023-04-23T20:13:38.205Z,5.40
2023-04-23T20:16:14.666Z,3.45
2023-04-23T20:18:51.301Z,3.92
2023-04-23T20:21:27.398Z,5.28
2023-04-23T20:24:12.515Z,4.50
2023-04-23T20:26:48.978Z,4.95
2023-04-23T20:29:25.200Z,3.80
2023-04-23T20:32:02.045Z,4.00
2023-04-23T20:34:38.446Z,3.70
2023-04-23T20:37:14.926Z,4.20
2023-04-23T20:39:51.765Z,4.30
2023-04-23T20:42:28.402Z,3.70
2023-04-23T20:45:08.899Z,3.67
2023-04-23T20:47:46.354Z,3.67
2023-04-23T20:50:23.202Z,3.75
2023-04-23T20:53:00.504Z,4.18
2023-04-23T20:55:36.604Z,3.63
2023-04-23T20:58:13.384Z,4.72
2023-04-23T21:00:50.756Z,3.00
2023-04-23T21:03:27.803Z,3.42
2023-04-23T21:06:05.915Z,4.20
2023-04-23T21:08:42.221Z,3.72
2023-04-23T21:11:19.755Z,3.50
2023-04-23T21:13:57.309Z,3.72
2023-04-23T21:16:37.822Z,3.97
2023-04-23T21:19:14.947Z,4.15
2023-04-23T21:21:51.418Z,3.35
2023-04-23T21:24:27.842Z,3.80
2023-04-23T21:27:04.239Z,4.45
2023-04-23T21:29:43.770Z,4.88
2023-04-23T21:32:20.144Z,6.47
2023-04-23T21:34:56.474Z,4.95
2023-04-23T21:37:32.851Z,4.00
2023-04-23T21:40:09.920Z,5.05
2023-04-23T21:42:46.912Z,4.18
2023-04-23T21:45:23.722Z,3.30
2023-04-23T21:48:00.999Z,3.55
2023-04-23T21:50:37.110Z,3.25
2023-04-23T21:53:13.887Z,3.80
2023-04-23T21:55:50.728Z,3.78
2023-04-23T21:58:27.224Z,3.22
2023-04-23T22:01:03.514Z,3.70
2023-04-23T22:03:42.848Z,3.63
2023-04-23T22:06:19.315Z,3.30
2023-04-23T22:08:56.253Z,3.90
2023-04-23T22:11:33.979Z,4.05
2023-04-23T22:14:10.077Z,2.97
2023-04-23T22:16:48.510Z,4.25
2023-04-23T22:19:25.487Z,3.10
2023-04-23T22:22:01.821Z,3.72
2023-04-23T22:24:38.086Z,4.00
2023-04-23T22:27:14.638Z,3.58
2023-04-23T22:29:51.452Z,3.65
2023-04-23T22:32:28.533Z,4.22
2023-04-23T22:35:07.209Z,4.53
2023-04-23T22:37:43.292Z,3.58
2023-04-23T22:40:19.557Z,3.42
2023-04-23T22:42:55.977Z,4.53
2023-04-23T22:45:32.289Z,3.53
2023-04-23T22:48:08.715Z,4.03
2023-04-23T22:50:44.942Z,4.38
2023-04-23T22:53:21.424Z,3.75
2023-04-23T22:55:57.454Z,3.65
2023-04-23T22:58:33.737Z,3.55
2023-04-23T23:01:10.514Z,3.88
2023-04-23T23:03:47.057Z,3.75
2023-04-23T23:06:23.188Z,3.92
2023-04-23T23:08:59.452Z,4.00
2023-04-23T23:11:36.297Z,3.50
2023-04-23T23:14:12.733Z,4.43
2023-04-23T23:16:49.306Z,3.53
2023-04-23T23:19:30.366Z,3.25
2023-04-23T23:22:06.844Z,3.60
2023-04-23T23:24:43.191Z,3.72
2023-04-23T23:27:19.595Z,4.18
2023-04-23T23:29:57.278Z,3.65
2023-04-23T23:32:33.621Z,3.05
2023-04-23T23:35:10.106Z,3.10
2023-04-23T23:37:46.448Z,3.17
2023-04-23T23:40:23.041Z,2.42
2023-04-23T23:42:59.271Z,4.05
2023-04-23T23:45:35.735Z,3.40
2023-04-23T23:48:12.346Z,3.15
2023-04-23T23:50:48.479Z,3.45
2023-04-23T23:53:24.842Z,3.42
2023-04-23T23:56:01.188Z,3.45
2023-04-23T23:58:37.297Z,3.83
